Time;durP1;ratioP1;P1;durP2;ratioP2;P2;SDS_P1;SDS_P2;PMS_P1;PMS_P2;Temp;Humidity;BMP_temperature;BMP_pressure;BME280_temperature;BME280_humidity;BME280_pressure;Samples;Min_cycle;Max_cycle;Signal;HPM_P1;HPM_P2
2021/01/30 00:00:31;;;;;;;19.73;9.20;;;0.20;92.40;;;;;;5070851;28;20040;-72
2021/01/30 00:02:58;;;;;;;17.77;9.43;;;0.30;92.50;;;;;;5069541;28;20115;-72
2021/01/30 00:05:25;;;;;;;19.50;9.13;;;0.30;92.60;;;;;;5042031;28;20041;-72
2021/01/30 00:07:51;;;;;;;18.57;9.80;;;0.30;92.50;;;;;;5049867;28;20037;-72
2021/01/30 00:10:18;;;;;;;18.37;9.23;;;0.30;92.40;;;;;;5055046;28;20098;-72
2021/01/30 00:12:44;;;;;;;18.47;9.43;;;0.30;92.50;;;;;;5049496;28;20383;-72
2021/01/30 00:15:16;;;;;;;19.97;9.87;;;0.40;92.60;;;;;;5052771;28;20037;-71
2021/01/30 00:17:41;;;;;;;20.47;10.17;;;0.40;92.60;;;;;;5063167;28;20040;-72
2021/01/30 00:20:08;;;;;;;19.23;9.97;;;0.40;92.60;;;;;;5051424;28;20053;-72
2021/01/30 00:22:34;;;;;;;18.17;9.30;;;0.40;92.50;;;;;;5032192;28;20036;-72
2021/01/30 00:25:00;;;;;;;20.53;9.37;;;0.40;92.50;;;;;;5049576;28;20115;-72
2021/01/30 00:27:26;;;;;;;19.73;9.73;;;0.40;92.50;;;;;;5048968;28;20045;-72
2021/01/30 00:29:52;;;;;;;18.17;9.33;;;0.40;92.60;;;;;;5048173;28;20086;-72
2021/01/30 00:32:20;;;;;;;18.47;9.70;;;0.50;92.60;;;;;;5029944;28;20033;-72
2021/01/30 00:34:47;;;;;;;18.67;9.03;;;0.50;92.60;;;;;;5050300;28;20033;-72
2021/01/30 00:37:16;;;;;;;18.80;9.87;;;0.50;92.60;;;;;;5054182;28;20477;-72
2021/01/30 00:39:42;;;;;;;18.50;9.60;;;0.50;92.60;;;;;;5048029;28;20130;-72
2021/01/30 00:42:10;;;;;;;21.87;10.00;;;0.50;92.60;;;;;;5068891;28;20439;-72
2021/01/30 00:44:36;;;;;;;19.00;10.00;;;0.50;92.60;;;;;;5069195;28;20029;-72
2021/01/30 00:47:03;;;;;;;18.27;9.43;;;0.50;92.60;;;;;;5068938;28;20041;-72
2021/01/30 00:49:28;;;;;;;18.03;9.30;;;0.60;92.60;;;;;;5052679;28;20040;-72
2021/01/30 00:51:55;;;;;;;20.17;9.27;;;0.60;92.60;;;;;;5047135;28;20040;-72
2021/01/30 00:54:21;;;;;;;18.83;9.40;;;0.60;92.60;;;;;;5041245;28;20036;-73
2021/01/30 00:56:54;;;;;;;20.17;9.70;;;0.60;92.60;;;;;;5055816;28;20033;-71
2021/01/30 00:59:24;;;;;;;17.17;9.43;;;0.60;92.70;;;;;;5054187;28;20489;-72
2021/01/30 01:01:51;;;;;;;17.93;9.23;;;0.60;92.70;;;;;;5056405;28;20041;-72
2021/01/30 01:04:22;;;;;;;17.33;9.00;;;0.60;92.70;;;;;;5040068;28;20086;-76
2021/01/30 01:06:48;;;;;;;17.43;9.37;;;0.70;92.80;;;;;;5073907;28;20044;-72
2021/01/30 01:09:15;;;;;;;16.83;9.43;;;0.70;92.80;;;;;;5073344;28;20040;-70
2021/01/30 01:11:43;;;;;;;18.73;10.00;;;0.70;92.70;;;;;;5055151;28;20058;-73
2021/01/30 01:14:08;;;;;;;19.07;9.53;;;0.70;92.70;;;;;;5073713;28;20041;-76
2021/01/30 01:16:35;;;;;;;18.67;9.70;;;0.70;92.80;;;;;;5055182;28;20087;-74
2021/01/30 01:19:01;;;;;;;18.43;9.77;;;0.80;92.80;;;;;;5073647;28;20090;-73
2021/01/30 01:21:27;;;;;;;18.00;9.40;;;0.80;92.80;;;;;;5072369;28;20107;-75
2021/01/30 01:23:53;;;;;;;19.27;9.50;;;0.80;92.90;;;;;;5073550;28;20438;-75
2021/01/30 01:26:19;;;;;;;21.23;10.33;;;0.90;92.80;;;;;;5073131;28;20047;-75
2021/01/30 01:28:45;;;;;;;17.67;9.67;;;0.90;92.80;;;;;;5073516;28;20032;-75
2021/01/30 01:31:12;;;;;;;21.60;10.90;;;0.90;92.90;;;;;;5072992;28;20123;-75
2021/01/30 01:33:39;;;;;;;20.23;11.17;;;0.90;92.90;;;;;;5073680;28;20116;-73
2021/01/30 01:36:06;;;;;;;21.57;11.60;;;0.90;92.80;;;;;;5073161;28;20043;-73
2021/01/30 01:38:32;;;;;;;17.67;10.17;;;0.90;92.80;;;;;;5071975;28;20158;-73
2021/01/30 01:40:59;;;;;;;18.97;10.00;;;0.90;92.80;;;;;;5054291;28;20131;-73
2021/01/30 01:43:26;;;;;;;17.50;10.00;;;0.90;92.90;;;;;;5073670;28;20040;-73
2021/01/30 01:46:06;;;;;;;20.13;10.00;;;0.90;92.90;;;;;;5073435;28;20074;-73
2021/01/30 01:48:34;;;;;;;19.47;10.93;;;1.00;93.00;;;;;;5073431;28;20040;-72
2021/01/30 01:51:04;;;;;;;18.77;10.37;;;1.00;93.00;;;;;;5064804;28;20179;-73
2021/01/30 01:53:33;;;;;;;19.07;10.67;;;1.00;93.20;;;;;;5061982;28;20614;-72
2021/01/30 01:56:03;;;;;;;20.87;11.37;;;1.00;93.00;;;;;;5064136;28;20032;-73
2021/01/30 01:58:36;;;;;;;19.20;10.70;;;1.00;92.90;;;;;;5061738;28;20037;-72
2021/01/30 02:01:03;;;;;;;20.60;11.17;;;1.00;93.00;;;;;;5051076;28;20049;-73
2021/01/30 02:03:32;;;;;;;21.30;12.20;;;1.00;93.00;;;;;;5051838;28;20083;-71
2021/01/30 02:06:02;;;;;;;22.17;11.27;;;1.00;93.00;;;;;;5063664;28;20032;-72
2021/01/30 02:08:30;;;;;;;20.13;11.10;;;1.10;93.10;;;;;;5053563;28;20386;-71
2021/01/30 02:10:56;;;;;;;20.07;10.60;;;1.10;93.10;;;;;;5053231;28;20037;-72
2021/01/30 02:13:28;;;;;;;22.03;10.97;;;1.10;93.10;;;;;;5060464;28;20036;-72
2021/01/30 02:16:05;;;;;;;19.53;10.73;;;1.10;93.10;;;;;;5064549;28;20497;-74
2021/01/30 02:18:40;;;;;;;19.53;10.87;;;1.10;93.00;;;;;;5065361;28;20103;-74
2021/01/30 02:21:43;;;;;;;19.47;10.57;;;1.10;93.00;;;;;;5056786;28;20466;-74
2021/01/30 02:24:55;;;;;;;20.60;11.27;;;1.00;93.10;;;;;;5059895;28;20111;-74
2021/01/30 02:27:48;;;;;;;21.67;11.67;;;1.00;93.10;;;;;;5060341;28;20119;-74
2021/01/30 02:30:28;;;;;;;19.63;10.80;;;1.00;93.10;;;;;;5058726;28;20040;-74
2021/01/30 02:33:04;;;;;;;19.65;10.60;;;1.00;93.20;;;;;;5061983;28;20056;-74
2021/01/30 02:36:14;;;;;;;20.07;11.17;;;1.00;93.10;;;;;;5059083;28;20457;-74
2021/01/30 02:38:44;;;;;;;19.13;10.40;;;1.10;93.10;;;;;;5059625;28;20040;-74
2021/01/30 02:41:19;;;;;;;21.07;10.93;;;1.00;93.10;;;;;;5059255;28;20663;-74
2021/01/30 02:43:48;;;;;;;19.77;11.13;;;1.00;93.20;;;;;;5061768;28;20060;-74
2021/01/30 02:46:25;;;;;;;21.77;12.17;;;1.00;93.30;;;;;;5051807;28;20246;-74
2021/01/30 02:48:55;;;;;;;19.47;10.93;;;1.00;93.30;;;;;;5050655;28;20029;-75
2021/01/30 02:51:32;;;;;;;23.47;11.67;;;1.00;93.40;;;;;;5049614;28;20401;-73
2021/01/30 02:54:00;;;;;;;20.23;11.57;;;1.10;93.30;;;;;;5033764;28;20036;-73
2021/01/30 02:56:26;;;;;;;22.90;11.50;;;1.00;93.30;;;;;;5052146;28;20033;-73
2021/01/30 02:59:01;;;;;;;22.53;11.77;;;1.00;93.20;;;;;;5050284;28;20095;-74
2021/01/30 03:01:28;;;;;;;25.77;12.53;;;1.00;93.30;;;;;;5051125;28;20041;-73
2021/01/30 03:04:00;;;;;;;24.07;12.23;;;1.00;93.30;;;;;;5051389;28;20515;-74
2021/01/30 03:06:50;;;;;;;24.93;12.13;;;1.00;93.30;;;;;;5050290;28;20489;-73
2021/01/30 03:09:49;;;;;;;23.03;12.17;;;1.00;93.30;;;;;;5050869;28;20041;-72
2021/01/30 03:12:25;;;;;;;23.17;12.87;;;1.00;93.30;;;;;;5050485;28;20753;-73
2021/01/30 03:14:56;;;;;;;23.30;12.50;;;1.00;93.30;;;;;;5051467;28;20132;-74
2021/01/30 03:17:28;;;;;;;25.47;12.70;;;1.00;93.40;;;;;;5033148;28;20029;-74
2021/01/30 03:19:56;;;;;;;24.87;12.20;;;1.00;93.40;;;;;;5032369;28;20071;-74
2021/01/30 03:22:23;;;;;;;24.80;14.10;;;1.00;93.40;;;;;;5050345;28;20489;-74
2021/01/30 03:24:50;;;;;;;23.40;12.43;;;1.00;93.50;;;;;;5051485;28;20037;-74
2021/01/30 03:27:36;;;;;;;24.97;13.57;;;1.00;93.50;;;;;;5049896;28;20109;-73
2021/01/30 03:30:07;;;;;;;28.40;13.63;;;1.00;93.50;;;;;;5050989;28;20505;-74
2021/01/30 03:32:33;;;;;;;26.23;13.33;;;1.00;93.50;;;;;;5050775;28;20098;-74
2021/01/30 03:35:01;;;;;;;25.70;13.40;;;1.00;93.40;;;;;;5049819;28;20119;-74
2021/01/30 03:37:27;;;;;;;25.60;13.47;;;0.90;93.30;;;;;;5050559;28;20044;-74
2021/01/30 03:39:52;;;;;;;24.30;12.87;;;0.90;93.20;;;;;;5049510;28;20037;-73
2021/01/30 03:42:18;;;;;;;27.57;13.30;;;0.80;93.20;;;;;;5049300;28;20059;-73
2021/01/30 03:44:44;;;;;;;23.17;12.87;;;0.80;93.20;;;;;;5049174;28;20048;-72
2021/01/30 03:47:10;;;;;;;24.93;12.77;;;0.70;93.30;;;;;;5049928;28;20048;-74
2021/01/30 03:49:35;;;;;;;23.63;12.53;;;0.70;93.40;;;;;;5049032;28;20041;-73
2021/01/30 03:52:01;;;;;;;25.97;12.70;;;0.70;93.40;;;;;;5050174;28;20041;-74
2021/01/30 03:54:27;;;;;;;27.03;13.47;;;0.60;93.40;;;;;;5032915;28;20049;-73
2021/01/30 03:56:52;;;;;;;25.50;12.37;;;0.60;93.50;;;;;;5049256;28;20405;-73
2021/01/30 03:59:20;;;;;;;25.87;13.00;;;0.60;93.50;;;;;;5033073;28;20108;-74
2021/01/30 04:01:49;;;;;;;24.57;12.10;;;0.60;93.50;;;;;;5049141;28;20120;-73
2021/01/30 04:04:15;;;;;;;24.30;13.53;;;0.60;93.60;;;;;;5051183;28;20031;-74
2021/01/30 04:06:46;;;;;;;25.67;13.43;;;0.60;93.60;;;;;;5040597;28;20047;-74
2021/01/30 04:09:11;;;;;;;26.47;13.57;;;0.60;93.60;;;;;;5032456;28;20132;-73
2021/01/30 04:11:39;;;;;;;24.47;13.00;;;0.60;93.60;;;;;;5050269;28;20124;-74
2021/01/30 04:14:05;;;;;;;27.37;13.33;;;0.50;93.50;;;;;;5048805;28;20033;-73
2021/01/30 04:16:36;;;;;;;25.07;12.63;;;0.50;93.50;;;;;;5050285;28;20474;-74
2021/01/30 04:19:02;;;;;;;25.00;12.82;;;0.50;93.50;;;;;;5033429;28;20052;-74
2021/01/30 04:21:28;;;;;;;24.93;12.73;;;0.50;93.50;;;;;;5048388;28;20049;-73
2021/01/30 04:23:54;;;;;;;26.80;12.93;;;0.50;93.60;;;;;;5049458;28;20504;-74
2021/01/30 04:26:20;;;;;;;25.70;13.00;;;0.40;93.50;;;;;;5048824;28;20040;-73
2021/01/30 04:28:54;;;;;;;23.53;12.73;;;0.40;93.60;;;;;;5050341;28;20574;-74
2021/01/30 04:31:21;;;;;;;25.20;13.10;;;0.40;93.60;;;;;;5048820;28;20529;-74
2021/01/30 04:33:48;;;;;;;24.47;12.90;;;0.40;93.60;;;;;;5050299;28;20032;-73
2021/01/30 04:36:15;;;;;;;26.30;12.73;;;0.40;93.70;;;;;;5050798;28;20095;-74
2021/01/30 04:38:40;;;;;;;25.43;13.37;;;0.40;93.70;;;;;;5049144;28;20453;-74
2021/01/30 04:41:22;;;;;;;27.70;13.50;;;0.40;93.80;;;;;;5032234;28;20056;-73
2021/01/30 04:44:01;;;;;;;23.60;12.60;;;0.40;93.70;;;;;;5049684;28;20057;-74
2021/01/30 04:46:35;;;;;;;27.83;13.43;;;0.40;93.70;;;;;;5050013;28;20110;-74
2021/01/30 04:49:13;;;;;;;26.37;13.53;;;0.40;93.70;;;;;;5049882;28;20037;-74
2021/01/30 04:51:48;;;;;;;26.53;13.80;;;0.40;93.80;;;;;;5048319;28;20040;-71
2021/01/30 04:54:29;;;;;;;29.50;14.93;;;0.40;93.80;;;;;;5050176;28;20041;-74
2021/01/30 04:57:17;;;;;;;28.00;14.20;;;0.40;93.70;;;;;;5048213;28;20033;-74
2021/01/30 05:00:08;;;;;;;27.50;13.37;;;0.40;93.60;;;;;;5049833;28;20040;-74
2021/01/30 05:03:04;;;;;;;29.17;14.10;;;0.40;93.60;;;;;;5048991;28;20124;-73
2021/01/30 05:05:30;;;;;;;26.80;13.53;;;0.30;93.50;;;;;;5049265;28;20039;-74
2021/01/30 05:08:02;;;;;;;28.50;14.83;;;0.30;93.50;;;;;;5048456;28;20056;-74
2021/01/30 05:10:48;;;;;;;30.63;16.33;;;0.30;93.50;;;;;;5049420;28;20055;-74
2021/01/30 05:13:23;;;;;;;30.30;15.63;;;0.20;93.60;;;;;;5042734;28;20473;-74
2021/01/30 05:15:53;;;;;;;35.60;16.73;;;0.20;93.70;;;;;;5049224;28;20068;-74
2021/01/30 05:18:30;;;;;;;29.63;15.65;;;0.20;93.50;;;;;;5032503;28;20060;-74
2021/01/30 05:21:09;;;;;;;29.33;14.37;;;0.10;93.40;;;;;;5049727;28;20550;-73
2021/01/30 05:23:37;;;;;;;32.27;16.53;;;0.10;93.30;;;;;;5049013;28;20090;-74
2021/01/30 05:26:17;;;;;;;30.03;14.80;;;0.00;93.10;;;;;;5050392;28;20044;-73
2021/01/30 05:29:05;;;;;;;33.40;16.13;;;-0.10;93.00;;;;;;5049630;28;20087;-74
2021/01/30 05:31:47;;;;;;;31.13;15.47;;;-0.20;92.90;;;;;;5048692;28;20033;-74
2021/01/30 05:34:52;;;;;;;33.20;16.10;;;-0.30;92.90;;;;;;5049856;28;20044;-74
2021/01/30 05:37:23;;;;;;;36.60;17.23;;;-0.40;93.10;;;;;;5049194;28;20041;-73
2021/01/30 05:39:52;;;;;;;40.00;18.43;;;-0.40;93.20;;;;;;5048253;28;20048;-73
2021/01/30 05:42:30;;;;;;;39.00;18.63;;;-0.40;93.50;;;;;;5050265;28;20041;-74
2021/01/30 05:45:31;;;;;;;41.30;19.33;;;-0.40;93.70;;;;;;5053000;28;20154;-73
2021/01/30 05:47:57;;;;;;;42.95;19.38;;;-0.40;93.80;;;;;;5051428;28;20052;-73
2021/01/30 05:50:32;;;;;;;37.37;18.00;;;-0.30;93.90;;;;;;5052796;28;20493;-73
2021/01/30 05:52:59;;;;;;;38.43;18.80;;;-0.30;94.00;;;;;;5050723;28;20037;-74
2021/01/30 05:55:33;;;;;;;36.53;16.93;;;-0.20;94.00;;;;;;5051617;28;20059;-74
2021/01/30 05:58:05;;;;;;;36.13;17.10;;;-0.10;94.10;;;;;;5078933;23;20525;-73
2021/01/30 06:00:31;;;;;;;34.03;16.60;;;-0.10;94.10;;;;;;5029780;28;20030;-74
2021/01/30 06:03:13;;;;;;;35.30;16.93;;;0.00;94.00;;;;;;5032194;28;20029;-73
2021/01/30 06:05:43;;;;;;;34.37;16.40;;;0.00;93.90;;;;;;5015483;28;20034;-73
2021/01/30 06:08:14;;;;;;;34.33;15.97;;;0.10;93.80;;;;;;5033347;28;20091;-73
2021/01/30 06:10:41;;;;;;;33.17;16.07;;;0.10;93.60;;;;;;5031059;28;20431;-75
2021/01/30 06:13:20;;;;;;;34.30;16.43;;;0.00;93.40;;;;;;5032118;28;20037;-73
2021/01/30 06:15:49;;;;;;;31.37;15.23;;;0.00;93.20;;;;;;5016820;28;20037;-73
2021/01/30 06:18:38;;;;;;;34.97;16.50;;;-0.10;93.50;;;;;;4998911;28;20034;-73
2021/01/30 06:21:21;;;;;;;32.13;16.27;;;-0.20;93.40;;;;;;5030903;28;20044;-73
2021/01/30 06:24:06;;;;;;;32.93;16.13;;;-0.20;93.30;;;;;;5032042;28;20386;-73
2021/01/30 06:26:47;;;;;;;33.17;15.67;;;-0.30;93.00;;;;;;5032817;28;20038;-72
2021/01/30 06:29:54;;;;;;;33.67;16.10;;;-0.40;92.80;;;;;;5031443;28;20033;-72
2021/01/30 06:32:20;;;;;;;33.80;15.40;;;-0.60;92.70;;;;;;5030062;28;20040;-72
2021/01/30 06:35:04;;;;;;;36.57;16.03;;;-0.70;92.60;;;;;;5032188;28;20488;-72
2021/01/30 06:37:43;;;;;;;32.30;14.57;;;-0.80;92.60;;;;;;5032001;28;20045;-73
2021/01/30 06:40:25;;;;;;;34.73;15.60;;;-0.90;92.70;;;;;;5030567;28;20037;-73
2021/01/30 06:43:01;;;;;;;34.37;15.27;;;-1.00;92.80;;;;;;5031495;28;20034;-72
2021/01/30 06:45:37;;;;;;;35.87;15.47;;;-1.00;93.10;;;;;;5032128;28;20037;-72
2021/01/30 06:48:08;;;;;;;33.13;15.33;;;-1.10;93.30;;;;;;5031789;28;20041;-72
2021/01/30 06:50:38;;;;;;;30.17;13.63;;;-1.10;93.40;;;;;;5047307;28;20041;-72
2021/01/30 06:53:25;;;;;;;35.10;15.07;;;-1.00;93.40;;;;;;5030126;28;20038;-72
2021/01/30 06:55:51;;;;;;;35.50;15.43;;;-1.00;93.40;;;;;;5031570;28;20038;-72
2021/01/30 06:58:37;;;;;;;32.60;15.70;;;-1.00;93.30;;;;;;5030362;28;20053;-72
2021/01/30 07:01:09;;;;;;;33.13;14.47;;;-1.00;93.30;;;;;;5030888;28;20041;-73
2021/01/30 07:03:59;;;;;;;33.40;15.80;;;-1.10;93.30;;;;;;5030449;28;20398;-73
2021/01/30 07:06:52;;;;;;;34.70;14.90;;;-1.10;93.20;;;;;;5030119;28;20040;-73
2021/01/30 07:09:27;;;;;;;33.27;15.03;;;-1.10;93.20;;;;;;5029757;28;20128;-72
2021/01/30 07:12:23;;;;;;;34.70;14.90;;;-1.20;93.20;;;;;;5046346;28;20445;-73
2021/01/30 07:15:01;;;;;;;33.00;15.37;;;-1.10;93.40;;;;;;5030610;28;20033;-73
2021/01/30 07:17:53;;;;;;;30.70;13.77;;;-1.20;93.40;;;;;;5031055;28;20473;-72
2021/01/30 07:20:57;;;;;;;34.23;14.77;;;-1.10;93.40;;;;;;5031314;28;20038;-72
2021/01/30 07:23:51;;;;;;;33.87;14.87;;;-1.20;93.40;;;;;;5046405;28;20022;-72
2021/01/30 07:26:29;;;;;;;31.33;14.47;;;-1.10;93.40;;;;;;5028265;28;20417;-73
2021/01/30 07:29:09;;;;;;;31.87;15.13;;;-1.10;93.50;;;;;;5031033;28;20108;-72
2021/01/30 07:31:54;;;;;;;28.23;13.63;;;-1.10;93.60;;;;;;5030447;28;20041;-72
2021/01/30 07:34:26;;;;;;;29.87;13.33;;;-1.00;93.60;;;;;;5029723;28;20133;-73
2021/01/30 07:37:02;;;;;;;31.40;14.87;;;-0.90;93.70;;;;;;5030555;28;20036;-73
2021/01/30 07:39:31;;;;;;;31.47;14.13;;;-0.80;93.90;;;;;;5028937;28;20103;-70
2021/01/30 07:41:58;;;;;;;27.53;13.87;;;-0.80;93.90;;;;;;5030139;28;20048;-71
2021/01/30 07:44:44;;;;;;;26.17;12.50;;;-0.60;94.00;;;;;;5029539;28;20116;-72
2021/01/30 07:47:18;;;;;;;29.70;14.73;;;-0.60;93.80;;;;;;5011578;28;20038;-72
2021/01/30 07:49:51;;;;;;;25.70;12.90;;;-0.50;93.90;;;;;;5010760;28;20042;-72
2021/01/30 07:52:25;;;;;;;27.23;12.63;;;-0.40;94.20;;;;;;5025424;28;20504;-72
2021/01/30 07:54:54;;;;;;;26.43;13.03;;;-0.30;93.90;;;;;;5026155;28;20517;-72
2021/01/30 07:57:42;;;;;;;28.43;14.63;;;-0.20;93.80;;;;;;5010438;28;20058;-72
2021/01/30 08:00:12;;;;;;;27.23;14.97;;;-0.10;93.60;;;;;;5024963;28;20565;-72
2021/01/30 08:03:07;;;;;;;27.10;14.27;;;-0.10;93.50;;;;;;5026226;28;20217;-72
2021/01/30 08:06:11;;;;;;;26.70;14.70;;;0.00;93.50;;;;;;5010090;28;20030;-72
2021/01/30 08:08:45;;;;;;;26.33;14.50;;;0.10;93.70;;;;;;5008089;28;20061;-72
2021/01/30 08:11:21;;;;;;;28.83;13.90;;;0.10;93.80;;;;;;5025062;28;20099;-72
2021/01/30 08:14:15;;;;;;;23.63;13.37;;;0.20;94.00;;;;;;5010053;28;20184;-71
2021/01/30 08:17:05;;;;;;;23.40;12.50;;;0.40;94.00;;;;;;5025428;28;20030;-72
2021/01/30 08:19:55;;;;;;;19.40;10.83;;;0.50;94.20;;;;;;5025741;28;20117;-72
2021/01/30 08:22:30;;;;;;;18.48;10.55;;;0.70;94.10;;;;;;5009438;28;20089;-71
2021/01/30 08:25:05;;;;;;;22.63;11.37;;;0.80;94.10;;;;;;5025737;28;20046;-72
2021/01/30 08:27:57;;;;;;;19.10;10.63;;;1.00;93.80;;;;;;5008675;28;20038;-72
2021/01/30 08:30:25;;;;;;;20.80;10.77;;;1.10;93.40;;;;;;5024620;28;20509;-72
2021/01/30 08:32:58;;;;;;;20.30;11.10;;;1.20;93.40;;;;;;5010116;28;20048;-71
2021/01/30 08:35:24;;;;;;;18.53;10.77;;;1.20;93.50;;;;;;5025158;28;20414;-72
2021/01/30 08:38:01;;;;;;;21.50;11.60;;;1.40;93.80;;;;;;5025331;28;20101;-72
2021/01/30 08:40:46;;;;;;;18.77;10.90;;;1.90;94.60;;;;;;5009339;28;20428;-72
2021/01/30 08:43:23;;;;;;;18.47;11.77;;;2.40;93.80;;;;;;5009988;28;20037;-72
2021/01/30 08:45:50;;;;;;;18.23;11.23;;;2.70;94.00;;;;;;5009251;28;20514;-72
2021/01/30 08:48:32;;;;;;;17.47;11.03;;;3.00;93.10;;;;;;5009963;28;20074;-72
2021/01/30 08:50:58;;;;;;;23.37;12.70;;;3.40;93.80;;;;;;5008897;28;20049;-72
2021/01/30 08:53:24;;;;;;;17.37;11.23;;;3.90;93.70;;;;;;5026997;28;20043;-72
2021/01/30 08:55:59;;;;;;;18.73;11.53;;;4.10;92.80;;;;;;5029136;28;20041;-72
2021/01/30 08:58:36;;;;;;;20.73;12.20;;;4.10;92.50;;;;;;5019052;28;20092;-71
2021/01/30 09:01:08;;;;;;;17.43;9.93;;;4.10;92.50;;;;;;5008605;28;20517;-72
2021/01/30 09:03:55;;;;;;;15.90;9.37;;;4.10;92.30;;;;;;4992688;28;20589;-72
2021/01/30 09:06:39;;;;;;;17.17;9.87;;;4.20;92.90;;;;;;5020236;28;20038;-72
2021/01/30 09:09:19;;;;;;;18.33;10.70;;;4.30;93.00;;;;;;5028510;28;20045;-72
2021/01/30 09:11:56;;;;;;;15.48;10.05;;;4.80;93.50;;;;;;5023524;28;20112;-72
2021/01/30 09:14:22;;;;;;;15.57;9.60;;;5.50;92.30;;;;;;5024712;28;20490;-72
2021/01/30 09:16:56;;;;;;;13.63;8.57;;;5.60;91.40;;;;;;5008900;28;20076;-71
2021/01/30 09:19:36;;;;;;;14.13;8.70;;;6.00;92.30;;;;;;5027305;28;20081;-72
2021/01/30 09:22:18;;;;;;;13.37;8.20;;;6.50;91.70;;;;;;5012109;28;20594;-72
2021/01/30 09:25:10;;;;;;;12.93;8.00;;;6.90;92.10;;;;;;4995830;28;20525;-72
2021/01/30 09:28:04;;;;;;;12.37;8.23;;;7.30;90.50;;;;;;4970779;28;20117;-72
2021/01/30 09:30:43;;;;;;;12.87;8.40;;;7.70;91.20;;;;;;5030867;28;20041;-71
2021/01/30 09:33:13;;;;;;;11.93;7.83;;;8.60;90.10;;;;;;5016363;28;20574;-72
2021/01/30 09:35:42;;;;;;;12.85;8.32;;;8.80;88.50;;;;;;5029005;28;20071;-72
2021/01/30 09:38:33;;;;;;;12.23;7.73;;;8.80;87.60;;;;;;5021619;28;20049;-72
2021/01/30 09:41:21;;;;;;;11.40;7.57;;;8.20;84.80;;;;;;5017842;28;20042;-72
2021/01/30 09:43:48;;;;;;;11.33;7.07;;;7.60;87.20;;;;;;5001196;28;20034;-72
2021/01/30 09:46:21;;;;;;;11.13;7.23;;;7.50;87.10;;;;;;5012327;28;20045;-71
2021/01/30 09:48:49;;;;;;;10.70;7.00;;;7.30;85.60;;;;;;5015023;28;20041;-72
2021/01/30 09:51:15;;;;;;;11.17;7.20;;;6.70;83.90;;;;;;5032060;28;20042;-71
2021/01/30 09:53:57;;;;;;;12.37;7.97;;;6.10;84.30;;;;;;5028534;28;20453;-72
2021/01/30 09:56:24;;;;;;;12.47;7.73;;;5.50;85.70;;;;;;5012981;28;20049;-72
2021/01/30 09:58:59;;;;;;;11.47;7.27;;;5.00;86.10;;;;;;5011606;28;20046;-71
2021/01/30 10:01:35;;;;;;;12.33;7.67;;;4.70;87.00;;;;;;5011862;28;20076;-72
2021/01/30 10:04:26;;;;;;;12.73;7.53;;;4.40;88.10;;;;;;5015126;28;20095;-71
2021/01/30 10:06:52;;;;;;;;;;;4.30;89.40;;;;;;5011600;28;20038;-71
2021/01/30 10:09:24;;;;;;;11.37;6.63;;;4.30;88.80;;;;;;5012909;28;19992;-72
2021/01/30 10:11:54;;;;;;;11.33;6.80;;;4.20;88.00;;;;;;5013414;28;20041;-72
2021/01/30 10:14:21;;;;;;;11.43;6.80;;;4.00;87.60;;;;;;4995055;28;20050;-71
2021/01/30 10:17:03;;;;;;;11.87;6.57;;;3.90;87.50;;;;;;5012881;28;20042;-72
2021/01/30 10:19:33;;;;;;;11.37;6.90;;;3.70;87.90;;;;;;5014914;28;20037;-72
2021/01/30 10:22:10;;;;;;;10.67;6.70;;;3.60;88.40;;;;;;5031933;28;20037;-72
2021/01/30 10:24:36;;;;;;;12.73;7.03;;;3.50;88.70;;;;;;5030411;28;20045;-72
2021/01/30 10:27:24;;;;;;;11.47;6.70;;;3.40;88.70;;;;;;4992337;28;20034;-71
2021/01/30 10:29:56;;;;;;;10.93;6.13;;;3.30;88.40;;;;;;5011279;28;20045;-71
2021/01/30 10:32:39;;;;;;;11.50;6.77;;;3.30;89.00;;;;;;5011660;28;20530;-73
2021/01/30 10:35:11;;;;;;;11.10;5.67;;;3.40;89.60;;;;;;5028403;28;20033;-72
2021/01/30 10:37:43;;;;;;;10.80;6.33;;;3.70;89.60;;;;;;5011146;28;20553;-71
2021/01/30 10:40:18;;;;;;;11.20;6.40;;;3.90;89.00;;;;;;5030221;28;20060;-72
2021/01/30 10:42:45;;;;;;;9.63;5.70;;;4.00;87.70;;;;;;5027106;28;20494;-72
2021/01/30 10:45:25;;;;;;;10.23;5.97;;;4.10;86.70;;;;;;5028242;28;20472;-72
2021/01/30 10:48:06;;;;;;;9.67;5.70;;;4.10;86.10;;;;;;5011797;28;20041;-71
2021/01/30 10:50:36;;;;;;;9.87;5.60;;;4.20;86.50;;;;;;5010158;28;20509;-72
2021/01/30 10:53:32;;;;;;;10.50;5.97;;;4.40;86.70;;;;;;5019258;28;20049;-71
2021/01/30 10:55:59;;;;;;;9.27;5.37;;;4.60;86.60;;;;;;4991775;28;20450;-71
2021/01/30 10:58:24;;;;;;;9.07;5.03;;;4.70;87.80;;;;;;5006704;28;20376;-71
2021/01/30 11:01:07;;;;;;;9.83;5.20;;;4.80;88.40;;;;;;4991776;28;20053;-71
2021/01/30 11:03:54;;;;;;;9.43;5.23;;;5.20;88.90;;;;;;4989619;28;20091;-72
2021/01/30 11:06:43;;;;;;;9.23;5.03;;;6.00;88.60;;;;;;4993016;28;20060;-71
2021/01/30 11:09:21;;;;;;;9.50;5.03;;;7.30;88.20;;;;;;4974522;28;20117;-71
2021/01/30 11:11:51;;;;;;;8.60;5.10;;;8.30;87.50;;;;;;4974970;28;20505;-71
2021/01/30 11:14:27;;;;;;;9.00;5.10;;;9.00;84.50;;;;;;5007726;28;20046;-71
2021/01/30 11:16:54;;;;;;;16.00;5.63;;;8.90;80.20;;;;;;4991780;28;20093;-71
2021/01/30 11:19:22;;;;;;;9.90;5.00;;;8.30;78.30;;;;;;4990858;28;20037;-71
2021/01/30 11:21:50;;;;;;;8.83;5.00;;;7.60;77.90;;;;;;5006334;28;20030;-71
2021/01/30 11:24:35;;;;;;;8.53;4.53;;;7.10;77.50;;;;;;4974158;28;20069;-70
2021/01/30 11:27:01;;;;;;;8.47;4.60;;;6.50;77.10;;;;;;4990214;28;20070;-71
2021/01/30 11:29:35;;;;;;;10.60;5.43;;;5.90;77.30;;;;;;4990515;28;20113;-71
2021/01/30 11:32:02;;;;;;;12.60;6.07;;;5.40;78.00;;;;;;4992080;28;20040;-71
2021/01/30 11:34:28;;;;;;;10.40;5.00;;;5.10;78.90;;;;;;4992397;28;20442;-71
2021/01/30 11:36:55;;;;;;;9.77;4.87;;;4.90;79.80;;;;;;4991269;28;20030;-70
2021/01/30 11:39:28;;;;;;;10.47;5.33;;;4.80;80.60;;;;;;4990259;28;20035;-70
2021/01/30 11:41:55;;;;;;;11.63;5.40;;;5.10;82.90;;;;;;4989616;28;20026;-71
2021/01/30 11:44:21;;;;;;;9.53;4.90;;;5.40;83.90;;;;;;4990494;28;20034;-70
2021/01/30 11:46:52;;;;;;;9.07;4.63;;;6.00;83.90;;;;;;4989990;28;20537;-71
2021/01/30 11:49:18;;;;;;;9.47;5.10;;;6.60;83.40;;;;;;5006824;28;20470;-70
2021/01/30 11:51:44;;;;;;;9.40;5.10;;;6.90;81.30;;;;;;4990004;28;20074;-71
2021/01/30 11:54:11;;;;;;;10.37;5.80;;;7.00;78.60;;;;;;4991455;28;20042;-71
2021/01/30 11:56:38;;;;;;;9.90;5.53;;;6.70;77.60;;;;;;4974201;28;20557;-71
2021/01/30 11:59:04;;;;;;;10.50;5.60;;;6.50;77.30;;;;;;4990998;28;20042;-71
2021/01/30 12:01:31;;;;;;;9.53;4.97;;;6.20;76.80;;;;;;4973909;28;20034;-70
2021/01/30 12:04:00;;;;;;;9.43;5.17;;;6.00;76.40;;;;;;4991632;28;20229;-71
2021/01/30 12:06:26;;;;;;;10.20;5.50;;;5.80;78.00;;;;;;5021320;23;20496;-69
2021/01/30 12:08:52;;;;;;;10.73;6.03;;;5.80;78.30;;;;;;5031449;28;20090;-69
2021/01/30 12:11:19;;;;;;;11.17;6.13;;;6.30;79.90;;;;;;5012762;28;20426;-69
2021/01/30 12:13:44;;;;;;;10.43;5.80;;;7.30;81.40;;;;;;5030072;28;20042;-70
2021/01/30 12:16:11;;;;;;;9.70;5.07;;;8.50;80.00;;;;;;5031078;28;20045;-70
2021/01/30 12:18:37;;;;;;;8.57;4.30;;;10.10;77.70;;;;;;5031042;28;20041;-70
2021/01/30 12:21:03;;;;;;;7.85;4.45;;;11.70;75.00;;;;;;5029723;28;20380;-71
2021/01/30 12:23:29;;;;;;;8.00;4.70;;;13.30;72.60;;;;;;5030740;28;20041;-71
2021/01/30 12:25:55;;;;;;;8.80;5.10;;;14.80;70.10;;;;;;5030968;28;20490;-71
2021/01/30 12:28:23;;;;;;;7.25;4.68;;;16.10;67.00;;;;;;5031106;28;20038;-70
2021/01/30 12:30:49;;;;;;;9.43;4.93;;;17.20;64.90;;;;;;5030376;28;20397;-70
2021/01/30 12:33:15;;;;;;;7.78;4.80;;;18.00;62.80;;;;;;5029785;28;20029;-71
2021/01/30 12:35:41;;;;;;;7.57;4.30;;;18.50;60.40;;;;;;5030585;28;20485;-71
2021/01/30 12:38:11;;;;;;;6.55;3.88;;;18.70;58.70;;;;;;5030988;28;20033;-71
2021/01/30 12:40:43;;;;;;;9.40;4.80;;;18.70;57.40;;;;;;5030732;28;20046;-70
2021/01/30 12:43:10;;;;;;;7.25;4.47;;;18.70;55.70;;;;;;5030809;28;20505;-70
2021/01/30 12:45:36;;;;;;;7.72;4.60;;;18.50;53.80;;;;;;5029375;28;20033;-70
2021/01/30 12:48:05;;;;;;;7.30;4.85;;;18.10;51.80;;;;;;5032478;28;20052;-70
2021/01/30 12:50:31;;;;;;;8.05;5.32;;;17.10;50.20;;;;;;5050747;28;20056;-68
2021/01/30 12:52:58;;;;;;;11.32;6.18;;;16.10;50.60;;;;;;5036469;28;20504;-70
2021/01/30 12:55:24;;;;;;;9.02;5.13;;;15.20;50.00;;;;;;5036517;28;20067;-70
2021/01/30 12:57:50;;;;;;;8.25;4.60;;;14.10;50.90;;;;;;5054799;28;20037;-71
2021/01/30 13:00:22;;;;;;;6.72;4.05;;;13.10;51.50;;;;;;5036284;28;20087;-70
2021/01/30 13:02:48;;;;;;;7.63;4.10;;;12.20;53.60;;;;;;5054614;28;20037;-70
2021/01/30 13:05:15;;;;;;;7.05;4.00;;;11.30;53.40;;;;;;5036089;28;20036;-69
2021/01/30 13:07:41;;;;;;;6.88;3.70;;;10.60;53.80;;;;;;5054715;28;20043;-69
2021/01/30 13:10:14;;;;;;;7.85;3.85;;;10.20;55.00;;;;;;5054279;28;20045;-70
2021/01/30 13:12:39;;;;;;;6.07;3.42;;;10.00;55.00;;;;;;5025319;28;20029;-71